Ryegate Corner, Vermont
Current Conditions -  °F | °C
As of 9:44 AM on Saturday 25 Oct 2014 (Local Time) from KMPV Reporting Station
Clear Clear  
Wind Chill: 40°   Ceiling: Unl
Heat Index: 40°   Visibility: 10mi
Dew Point: 39°   Wind: 0mph
Humidity: 97%   Direction: NA
Pressure: 29.77"   Gusts: NA
Location:  44.1959°N, 72.0788°W
Report Text: KMPV 251344Z AUTO 00000KT 10SM CLR 04/04 A2977 RMK AO2 T00440039 $
Loading
Personal Weather Stations






























Interactive Weather Map
Tropical Storm Tracking
New forecast layout! Learn more

10-Day Weather Forecast

Advertisements
Track Severe Weather on mobile